Time;durP1;ratioP1;P1;durP2;ratioP2;P2;SDS_P1;SDS_P2;PMS_P1;PMS_P2;Temp;Humidity;BMP_temperature;BMP_pressure;BME280_temperature;BME280_humidity;BME280_pressure;Samples;Min_cycle;Max_cycle;Signal;HPM_P1;HPM_P2
2022/05/18 00:02:23;;;;;;;;;;;;;;;24.34;18.26;101222.03;5137916;27;20362;-77
2022/05/18 00:04:48;;;;;;;;;;;;;;;24.35;18.42;101220.94;5119618;27;20015;-80
2022/05/18 00:07:13;;;;;;;;;;;;;;;24.34;18.11;101222.03;5120218;28;20378;-77
2022/05/18 00:09:38;;;;;;;;;;;;;;;24.33;18.20;101221.19;5138263;27;19915;-79
2022/05/18 00:12:04;;;;;;;;;;;;;;;24.33;18.20;101223.09;5138467;27;20006;-78
2022/05/18 00:14:29;;;;;;;;;;;;;;;24.33;18.35;101223.91;5138365;28;20357;-77
2022/05/18 00:16:54;;;;;;;;;;;;;;;24.32;18.24;101221.47;5138698;28;20005;-77
2022/05/18 00:19:20;;;;;;;;;;;;;;;24.32;18.24;101216.00;5138519;28;19919;-78
2022/05/18 00:21:45;;;;;;;;;;;;;;;24.32;18.21;101226.94;5138331;28;19915;-80
2022/05/18 00:24:11;;;;;;;;;;;;;;;24.31;18.46;101217.06;5138566;28;19992;-77
2022/05/18 00:26:36;;;;;;;;;;;;;;;24.31;18.34;101223.34;5138020;28;19925;-79
2022/05/18 00:29:01;;;;;;;;;;;;;;;24.30;18.12;101219.00;5138595;28;20014;-76
2022/05/18 00:31:27;;;;;;;;;;;;;;;24.31;18.27;101219.81;5138505;28;19941;-78
2022/05/18 00:33:52;;;;;;;;;;;;;;;24.31;18.12;101225.28;5120182;28;20310;-77
2022/05/18 00:36:17;;;;;;;;;;;;;;;24.30;18.37;101218.16;5138126;28;19927;-78
2022/05/18 00:38:42;;;;;;;;;;;;;;;24.30;18.11;101218.16;5137971;28;19915;-77
2022/05/18 00:41:08;;;;;;;;;;;;;;;24.30;18.20;101218.16;5137521;28;19921;-79
2022/05/18 00:43:33;;;;;;;;;;;;;;;24.31;18.10;101222.53;5137453;28;19945;-79
2022/05/18 00:45:59;;;;;;;;;;;;;;;24.30;18.12;101215.41;5137656;28;20283;-77
2022/05/18 00:48:24;;;;;;;;;;;;;;;24.29;18.25;101217.34;5138529;28;19955;-80
2022/05/18 00:50:49;;;;;;;;;;;;;;;24.30;18.16;101224.47;5137397;28;19998;-78
2022/05/18 00:53:25;;;;;;;;;;;;;;;24.28;18.17;101209.41;5137568;28;19922;-80
2022/05/18 00:55:55;;;;;;;;;;;;;;;24.29;17.96;101224.72;5138317;28;20359;-76
2022/05/18 00:58:38;;;;;;;;;;;;;;;24.27;18.00;101224.97;5138057;28;19915;-79
2022/05/18 01:01:03;;;;;;;;;;;;;;;24.26;18.17;101214.28;5119934;28;19916;-79
2022/05/18 01:03:29;;;;;;;;;;;;;;;24.26;18.15;101222.50;5137100;28;19915;-77
2022/05/18 01:06:05;;;;;;;;;;;;;;;24.27;18.07;101218.69;5137494;28;19915;-79
2022/05/18 01:08:33;;;;;;;;;;;;;;;24.26;18.15;101215.13;5120011;28;19923;-81
2022/05/18 01:10:58;;;;;;;;;;;;;;;24.26;18.04;101214.28;5119392;28;19924;-77
2022/05/18 01:13:26;;;;;;;;;;;;;;;24.26;18.12;101217.03;5137351;28;19927;-80
2022/05/18 01:15:51;;;;;;;;;;;;;;;24.25;18.22;101223.56;5137204;28;19930;-77
2022/05/18 01:18:16;;;;;;;;;;;;;;;24.24;18.18;101221.94;5119180;28;19919;-79
2022/05/18 01:20:42;;;;;;;;;;;;;;;24.26;17.95;101222.50;5121142;27;20366;-78
2022/05/18 01:23:07;;;;;;;;;;;;;;;24.24;17.92;101219.19;5141405;27;20011;-78
2022/05/18 01:25:51;;;;;;;;;;;;;;;24.24;18.12;101219.19;5141619;27;19915;-80
2022/05/18 01:28:16;;;;;;;;;;;;;;;24.24;17.91;101213.75;5141043;27;19915;-77
2022/05/18 01:30:46;;;;;;;;;;;;;;;24.23;17.91;101218.34;5141690;27;19917;-79
2022/05/18 01:33:11;;;;;;;;;;;;;;;24.23;17.76;101212.09;5123466;27;19915;-80
2022/05/18 01:35:39;;;;;;;;;;;;;;;24.23;17.85;101225.72;5141412;27;20372;-77
2022/05/18 01:38:06;;;;;;;;;;;;;;;24.22;18.00;101224.91;5123149;27;19916;-78
2022/05/18 01:40:41;;;;;;;;;;;;;;;24.22;18.07;101226.84;5140943;27;20293;-76
2022/05/18 01:43:24;;;;;;;;;;;;;;;24.22;17.81;101216.72;5141591;27;19960;-78
2022/05/18 01:45:55;;;;;;;;;;;;;;;24.21;18.01;101212.34;5141819;27;19916;-80
2022/05/18 01:48:21;;;;;;;;;;;;;;;24.22;17.78;101211.25;5141012;27;19954;-77
2022/05/18 01:50:46;;;;;;;;;;;;;;;24.22;17.96;101219.47;5141100;27;19968;-78
2022/05/18 01:53:11;;;;;;;;;;;;;;;24.23;17.74;101214.81;5106287;27;19916;-80
2022/05/18 01:55:37;;;;;;;;;;;;;;;24.21;18.03;101215.06;5122506;27;20026;-77
2022/05/18 01:58:02;;;;;;;;;;;;;;;24.22;17.78;101226.84;5122203;27;20332;-80
2022/05/18 02:00:27;;;;;;;;;;;;;;;24.22;17.62;101226.84;5122135;27;19931;-77
2022/05/18 02:02:53;;;;;;;;;;;;;;;24.22;17.80;101226.84;5122526;27;19915;-78
2022/05/18 02:05:18;;;;;;;;;;;;;;;24.21;17.70;101228.72;5140592;27;20297;-77
2022/05/18 02:07:43;;;;;;;;;;;;;;;24.21;17.76;101223.25;5140538;27;19915;-78
2022/05/18 02:10:09;;;;;;;;;;;;;;;24.21;17.96;101219.72;5139874;27;19915;-77
2022/05/18 02:12:34;;;;;;;;;;;;;;;24.21;17.75;101215.06;5140895;27;19915;-77
2022/05/18 02:14:59;;;;;;;;;;;;;;;24.21;17.90;101219.72;5139838;27;19941;-76
2022/05/18 02:17:25;;;;;;;;;;;;;;;24.21;17.83;101215.06;5140452;27;20276;-78
2022/05/18 02:19:50;;;;;;;;;;;;;;;24.21;17.92;101206.06;5139903;27;19915;-79
2022/05/18 02:22:16;;;;;;;;;;;;;;;24.20;17.99;101207.97;5140161;27;20281;-77
2022/05/18 02:24:41;;;;;;;;;;;;;;;24.21;17.79;101201.41;5140510;27;19915;-79
2022/05/18 02:27:06;;;;;;;;;;;;;;;24.21;17.92;101203.31;5120662;27;20030;-76
2022/05/18 02:29:31;;;;;;;;;;;;;;;24.20;17.68;101207.97;5139976;27;19923;-79
2022/05/18 02:31:57;;;;;;;;;;;;;;;24.21;17.67;101203.31;5139000;27;20014;-77
2022/05/18 02:34:22;;;;;;;;;;;;;;;24.19;17.70;101206.31;5139864;27;20013;-80
2022/05/18 02:36:48;;;;;;;;;;;;;;;24.20;17.83;101197.06;5139135;27;19920;-76
2022/05/18 02:39:14;;;;;;;;;;;;;;;24.19;17.74;101196.19;5139886;27;19965;-79
2022/05/18 02:41:39;;;;;;;;;;;;;;;24.19;17.74;101200.84;5139820;27;19919;-77
2022/05/18 02:44:04;;;;;;;;;;;;;;;24.18;17.87;101193.72;5121611;27;19923;-79
2022/05/18 02:46:29;;;;;;;;;;;;;;;24.18;17.90;101193.72;5140423;27;19915;-78
2022/05/18 02:48:55;;;;;;;;;;;;;;;24.17;17.74;101192.91;5121528;27;20419;-81
2022/05/18 02:51:22;;;;;;;;;;;;;;;24.18;17.80;101196.47;5121824;27;19916;-77
2022/05/18 02:53:47;;;;;;;;;;;;;;;24.18;17.77;101194.56;5139772;27;19919;-79
2022/05/18 02:56:14;;;;;;;;;;;;;;;24.18;17.74;101194.56;5121000;27;19922;-77
2022/05/18 02:58:43;;;;;;;;;;;;;;;24.19;17.96;101195.38;5139366;27;19985;-80
2022/05/18 03:01:09;;;;;;;;;;;;;;;24.17;17.82;101190.19;5153328;27;19933;-77
2022/05/18 03:03:34;;;;;;;;;;;;;;;24.21;17.88;101186.94;5148733;27;20474;-78
2022/05/18 03:06:00;;;;;;;;;;;;;;;24.23;17.70;101190.22;5149282;27;19916;-78
2022/05/18 03:08:25;;;;;;;;;;;;;;;24.27;17.71;101188.66;5136970;27;19915;-77
2022/05/18 03:10:51;;;;;;;;;;;;;;;24.28;17.90;101195.75;5155810;27;19915;-77
2022/05/18 03:13:16;;;;;;;;;;;;;;;24.30;17.77;101190.84;5156077;27;19977;-78
2022/05/18 03:15:41;;;;;;;;;;;;;;;24.30;17.77;101188.09;5151578;27;19930;-77
2022/05/18 03:18:07;;;;;;;;;;;;;;;24.32;17.88;101188.69;5146080;27;19919;-78
2022/05/18 03:23:34;;;;;;;;;;;;;;;24.41;17.87;101187.13;5150283;27;19926;-77
2022/05/18 03:26:03;;;;;;;;;;;;;;;24.44;17.98;101191.22;5149698;27;19923;-77
2022/05/18 03:28:28;;;;;;;;;;;;;;;24.44;18.00;101183.03;5151665;27;19990;-79
2022/05/18 03:30:55;;;;;;;;;;;;;;;24.46;18.21;101184.44;5151832;27;19922;-76
2022/05/18 03:33:22;;;;;;;;;;;;;;;24.48;18.22;101179.50;5150315;27;19915;-77
2022/05/18 03:35:48;;;;;;;;;;;;;;;24.50;18.21;101179.25;5148624;27;19923;-78
2022/05/18 03:38:13;;;;;;;;;;;;;;;24.51;18.11;101173.53;5144823;27;19916;-77
2022/05/18 03:40:38;;;;;;;;;;;;;;;24.54;18.05;101175.78;5145626;27;19951;-80
2022/05/18 03:43:04;;;;;;;;;;;;;;;24.57;18.32;101170.88;5144648;27;19983;-77
2022/05/18 03:45:30;;;;;;;;;;;;;;;24.58;18.43;101169.78;5147294;27;19923;-79
2022/05/18 03:47:55;;;;;;;;;;;;;;;24.60;18.07;101159.44;5147412;27;20392;-77
2022/05/18 03:50:20;;;;;;;;;;;;;;;24.62;18.42;101154.50;5145084;27;19922;-79
2022/05/18 03:52:45;;;;;;;;;;;;;;;24.64;18.19;101157.81;5145629;27;20385;-77
2022/05/18 03:55:11;;;;;;;;;;;;;;;24.66;18.17;101159.16;5146702;27;20277;-78
2022/05/18 03:57:36;;;;;;;;;;;;;;;24.68;18.38;101161.63;5147595;27;19971;-80
2022/05/18 04:00:01;;;;;;;;;;;;;;;24.70;18.40;101154.03;5145539;27;19919;-78
2022/05/18 04:02:26;;;;;;;;;;;;;;;24.73;18.36;101150.75;5146361;27;20297;-80
2022/05/18 04:04:52;;;;;;;;;;;;;;;24.73;18.36;101148.84;5139850;27;19937;-78
2022/05/18 04:07:17;;;;;;;;;;;;;;;24.75;18.36;101154.06;5141918;27;19975;-80
2022/05/18 04:09:45;;;;;;;;;;;;;;;24.79;18.13;101151.63;5141325;27;19916;-78
2022/05/18 04:12:10;;;;;;;;;;;;;;;24.80;18.41;101151.34;5140340;27;19926;-78
2022/05/18 04:14:35;;;;;;;;;;;;;;;24.81;18.20;101152.97;5140025;27;20251;-78
2022/05/18 04:17:01;;;;;;;;;;;;;;;24.83;18.11;101152.72;5146503;27;20285;-77
2022/05/18 04:19:26;;;;;;;;;;;;;;;24.87;18.01;101159.28;5154036;27;19987;-78
2022/05/18 04:21:51;;;;;;;;;;;;;;;24.86;18.03;101153.00;5131287;28;19919;-77
2022/05/18 04:24:16;;;;;;;;;;;;;;;24.90;17.94;101153.31;5150515;28;19923;-78
2022/05/18 04:26:42;;;;;;;;;;;;;;;24.88;18.17;101156.31;5127013;28;19971;-79
2022/05/18 04:29:07;;;;;;;;;;;;;;;24.93;17.79;101161.78;5145868;28;20307;-78
2022/05/18 04:31:32;;;;;;;;;;;;;;;24.93;18.09;101156.31;5128156;28;20223;-79
2022/05/18 04:33:57;;;;;;;;;;;;;;;24.91;17.68;101154.97;5146226;28;19940;-77
2022/05/18 04:36:23;;;;;;;;;;;;;;;24.93;17.82;101155.50;5131587;28;19926;-78
2022/05/18 04:38:48;;;;;;;;;;;;;;;24.96;17.89;101144.06;5132544;28;20013;-79
2022/05/18 04:41:13;;;;;;;;;;;;;;;24.95;17.65;101136.94;5131354;28;19927;-77
2022/05/18 04:43:38;;;;;;;;;;;;;;;24.97;17.62;101118.34;5130346;28;19941;-78
2022/05/18 04:46:05;;;;;;;;;;;;;;;24.99;17.48;101116.19;5131625;28;19922;-79
2022/05/18 04:48:31;;;;;;;;;;;;;;;24.97;17.51;101117.53;5147785;28;19998;-78
2022/05/18 04:50:56;;;;;;;;;;;;;;;25.01;17.30;101102.22;5145956;28;19984;-78
2022/05/18 04:53:22;;;;;;;;;;;;;;;25.02;17.35;101098.41;5126911;28;20361;-77
2022/05/18 04:55:49;;;;;;;;;;;;;;;24.99;17.30;101107.13;5137028;27;20012;-77
2022/05/18 04:58:14;;;;;;;;;;;;;;;25.03;17.21;101105.53;5137183;27;19982;-80
2022/05/18 05:00:40;;;;;;;;;;;;;;;25.03;17.18;101105.53;5153652;27;19927;-77
2022/05/18 05:03:05;;;;;;;;;;;;;;;25.06;17.09;101099.50;5156261;27;19899;-78
2022/05/18 05:05:30;;;;;;;;;;;;;;;25.11;17.23;101100.38;5148754;27;19919;-78
2022/05/18 05:07:55;;;;;;;;;;;;;;;25.11;16.90;101094.06;5151178;27;19916;-76
2022/05/18 05:10:21;;;;;;;;;;;;;;;25.09;17.11;101086.16;5153581;27;20290;-78
2022/05/18 05:12:46;;;;;;;;;;;;;;;25.14;16.81;101090.78;5152238;27;19903;-75
2022/05/18 05:15:12;;;;;;;;;;;;;;;25.12;17.11;101090.25;5152662;27;19935;-78
2022/05/18 05:17:37;;;;;;;;;;;;;;;25.17;16.75;101098.47;5146042;27;19967;-79
2022/05/18 05:20:02;;;;;;;;;;;;;;;25.21;16.83;101096.00;5147161;27;19916;-77
2022/05/18 05:22:28;;;;;;;;;;;;;;;25.22;16.67;101103.94;5148141;27;19916;-80
2022/05/18 05:24:53;;;;;;;;;;;;;;;25.24;16.58;101096.28;5147925;27;19916;-76
2022/05/18 05:27:18;;;;;;;;;;;;;;;25.24;16.59;101096.28;5148314;27;19923;-78
2022/05/18 05:29:43;;;;;;;;;;;;;;;25.26;16.69;101082.38;5151055;27;19955;-79
2022/05/18 05:32:09;;;;;;;;;;;;;;;25.25;16.58;101076.09;5154141;27;20002;-78
2022/05/18 05:34:34;;;;;;;;;;;;;;;25.29;16.75;101079.13;5155743;27;19915;-78
2022/05/18 05:37:00;;;;;;;;;;;;;;;25.32;16.53;101072.25;5159850;27;19972;-78
2022/05/18 05:39:25;;;;;;;;;;;;;;;25.29;16.11;101071.72;5140864;27;19915;-78
2022/05/18 05:41:50;;;;;;;;;;;;;;;25.33;16.43;101071.19;5157246;27;19910;-77
2022/05/18 05:44:15;;;;;;;;;;;;;;;25.33;16.38;101060.25;5151818;27;20299;-76
2022/05/18 05:46:41;;;;;;;;;;;;;;;25.32;16.28;101058.59;5153480;27;19998;-77
2022/05/18 05:49:06;;;;;;;;;;;;;;;25.36;16.38;101056.97;5156031;27;19923;-79
2022/05/18 05:51:31;;;;;;;;;;;;;;;25.42;16.19;101058.63;5157492;27;19908;-76
2022/05/18 05:53:56;;;;;;;;;;;;;;;25.41;16.00;101057.78;5155765;27;20086;-78
2022/05/18 05:56:22;;;;;;;;;;;;;;;25.41;16.10;101051.50;5158999;27;19934;-80
2022/05/18 05:58:50;;;;;;;;;;;;;;;25.43;16.07;101052.06;5157460;27;19911;-76
2022/05/18 06:01:16;;;;;;;;;;;;;;;25.47;16.04;101048.50;5158708;27;19916;-80
2022/05/18 06:03:41;;;;;;;;;;;;;;;25.53;15.76;101043.88;5141254;27;19923;-79
2022/05/18 06:06:08;;;;;;;;;;;;;;;25.55;15.98;101041.66;5160225;27;19998;-77
2022/05/18 06:08:35;;;;;;;;;;;;;;;25.52;16.08;101031.25;5160735;27;19907;-78
2022/05/18 06:11:00;;;;;;;;;;;;;;;25.56;16.02;101029.63;5142932;27;19927;-79
2022/05/18 06:13:26;;;;;;;;;;;;;;;25.48;15.67;101032.91;5160000;27;19911;-79
2022/05/18 06:15:51;;;;;;;;;;;;;;;25.59;15.89;101031.81;5160017;27;19904;-79
2022/05/18 06:18:17;;;;;;;;;;;;;;;25.59;15.92;101034.53;5160248;27;19930;-79
2022/05/18 06:20:42;;;;;;;;;;;;;;;25.59;16.00;101029.06;5160328;27;19916;-80
2022/05/18 06:23:09;;;;;;;;;;;;;;;25.58;15.80;101024.72;5140813;27;19920;-79
2022/05/18 06:25:35;;;;;;;;;;;;;;;25.64;15.56;101028.25;5159368;27;19931;-78
2022/05/18 06:28:01;;;;;;;;;;;;;;;25.64;15.93;101023.59;5141543;27;19919;-78
2022/05/18 06:30:26;;;;;;;;;;;;;;;25.66;15.55;101015.13;5155011;27;19922;-79
2022/05/18 06:32:53;;;;;;;;;;;;;;;25.73;15.79;101009.38;5157204;27;19903;-79
2022/05/18 06:35:18;;;;;;;;;;;;;;;25.74;15.44;101000.06;5149089;27;19920;-78
2022/05/18 06:37:43;;;;;;;;;;;;;;;25.81;15.33;100995.94;5159139;27;19927;-78
2022/05/18 06:40:09;;;;;;;;;;;;;;;25.81;15.45;100992.41;5139059;27;19907;-80
2022/05/18 06:42:36;;;;;;;;;;;;;;;25.82;15.33;100985.84;5159219;27;19913;-78
2022/05/18 06:45:08;;;;;;;;;;;;;;;25.86;15.23;100984.19;5058152;22;20114;-78
2022/05/18 06:47:36;;;;;;;;;;;;;;;25.97;15.25;100991.31;5035921;28;19917;-73
2022/05/18 06:50:05;;;;;;;;;;;;;;;25.90;15.36;100990.75;5036454;28;19959;-72
2022/05/18 06:52:36;;;;;;;;;;;;;;;25.89;15.26;100986.38;5037812;28;19952;-75
2022/05/18 06:58:03;;;;;;;;;;;;;;;25.95;15.19;100995.44;5014183;28;20019;-73
2022/05/18 07:01:00;;;;;;;;;;;;;;;25.93;15.30;100997.59;5038803;28;19952;-74
2022/05/18 07:03:26;;;;;;;;;;;;;;;25.94;15.06;100994.63;5032965;28;19924;-73
2022/05/18 07:06:12;;;;;;;;;;;;;;;26.07;15.25;100989.66;5039517;28;19956;-74
2022/05/18 07:08:41;;;;;;;;;;;;;;;26.11;15.15;100985.25;5038085;28;19940;-74
2022/05/18 07:11:23;;;;;;;;;;;;;;;26.11;15.04;100991.53;5037033;28;19918;-76
2022/05/18 07:13:53;;;;;;;;;;;;;;;26.06;15.13;100988.84;5038351;28;19984;-74
2022/05/18 07:16:27;;;;;;;;;;;;;;;26.12;15.35;100989.66;5038910;28;19922;-76
2022/05/18 07:19:05;;;;;;;;;;;;;;;26.15;15.11;100989.91;5031011;28;20287;-75
2022/05/18 07:21:33;;;;;;;;;;;;;;;26.15;14.81;100978.16;5036660;28;20027;-75
2022/05/18 07:23:58;;;;;;;;;;;;;;;26.18;15.25;100966.59;5047634;28;20397;-71
2022/05/18 07:26:27;;;;;;;;;;;;;;;26.18;15.04;100961.13;5053404;28;19917;-70
2022/05/18 07:28:52;;;;;;;;;;;;;;;26.13;14.84;100958.41;5054386;28;20392;-70
2022/05/18 07:31:19;;;;;;;;;;;;;;;26.10;14.93;100948.03;5053725;28;19917;-70
2022/05/18 07:33:47;;;;;;;;;;;;;;;26.09;14.91;100949.13;5052481;28;20247;-70
2022/05/18 07:36:12;;;;;;;;;;;;;;;26.14;14.96;100935.41;5053445;28;19963;-70
2022/05/18 07:38:39;;;;;;;;;;;;;;;26.14;14.98;100938.16;5053629;28;20352;-69
2022/05/18 07:41:04;;;;;;;;;;;;;;;26.12;14.94;100946.63;5053460;28;20316;-70
2022/05/18 07:43:30;;;;;;;;;;;;;;;26.13;14.81;100936.50;5057362;28;19932;-70
2022/05/18 07:45:55;;;;;;;;;;;;;;;26.13;14.86;100933.75;5074395;28;20342;-71
2022/05/18 07:48:20;;;;;;;;;;;;;;;26.16;14.81;100925.00;5074108;28;19917;-70
2022/05/18 07:50:46;;;;;;;;;;;;;;;26.03;15.05;100934.63;5073211;28;20238;-69
2022/05/18 07:53:11;;;;;;;;;;;;;;;26.04;15.05;100933.50;5073932;28;19988;-69
2022/05/18 07:55:36;;;;;;;;;;;;;;;26.03;14.92;100929.97;5075630;28;20003;-70
2022/05/18 07:58:05;;;;;;;;;;;;;;;26.07;14.78;100921.19;5074070;28;20439;-71
2022/05/18 08:00:32;;;;;;;;;;;;;;;26.03;14.87;100923.66;5073802;28;20490;-74
2022/05/18 08:02:58;;;;;;;;;;;;;;;26.12;14.70;100918.44;5073900;28;19916;-70
2022/05/18 08:05:23;;;;;;;;;;;;;;;26.14;14.66;100927.19;5074053;28;19924;-71
2022/05/18 08:07:52;;;;;;;;;;;;;;;26.03;14.97;100918.19;5074916;28;20429;-74
2022/05/18 08:15:46;;;;;;;;;;;;;;;26.16;14.62;100914.84;5076009;28;19923;-71
2022/05/18 08:18:12;;;;;;;;;;;;;;;26.03;14.43;100910.78;5074647;28;20359;-75
2022/05/18 08:20:43;;;;;;;;;;;;;;;26.11;14.58;100894.88;5058866;28;19923;-76
2022/05/18 08:23:09;;;;;;;;;;;;;;;26.20;14.23;100899.50;5047969;28;19916;-72
2022/05/18 08:25:34;;;;;;;;;;;;;;;26.12;14.32;100893.78;5054864;28;20233;-70
2022/05/18 08:28:00;;;;;;;;;;;;;;;26.08;14.29;100896.25;5053519;28;20378;-69
2022/05/18 08:30:25;;;;;;;;;;;;;;;26.13;14.30;100887.19;5056493;28;19917;-69
2022/05/18 08:32:50;;;;;;;;;;;;;;;26.19;14.04;100891.56;5056743;28;20383;-70
2022/05/18 08:35:16;;;;;;;;;;;;;;;26.13;14.13;100890.78;5056802;28;19928;-69
2022/05/18 08:37:41;;;;;;;;;;;;;;;26.08;13.93;100885.31;5056659;28;19923;-69
2022/05/18 08:40:08;;;;;;;;;;;;;;;26.05;14.00;100886.69;5056563;28;19923;-69
2022/05/18 08:42:33;;;;;;;;;;;;;;;26.23;14.07;100882.50;5057096;28;20011;-74
2022/05/18 08:45:03;;;;;;;;;;;;;;;26.27;13.95;100895.63;5038783;28;20311;-75
2022/05/18 08:47:41;;;;;;;;;;;;;;;26.25;13.90;100890.44;5057577;28;19917;-77
2022/05/18 08:50:31;;;;;;;;;;;;;;;26.39;13.67;100896.94;5044248;28;19972;-76
2022/05/18 08:53:07;;;;;;;;;;;;;;;26.23;13.65;100884.41;5041784;28;19917;-75
2022/05/18 08:55:58;;;;;;;;;;;;;;;26.33;13.71;100889.84;5062436;28;19917;-80
2022/05/18 08:58:57;;;;;;;;;;;;;;;26.24;13.82;100886.06;5069515;28;20409;-79
2022/05/18 09:04:53;;;;;;;;;;;;;;;26.38;13.73;100872.56;5007458;28;19925;-82
2022/05/18 09:07:47;;;;;;;;;;;;;;;26.32;13.49;100879.16;5007569;28;19918;-80
2022/05/18 09:10:34;;;;;;;;;;;;;;;26.33;13.54;100876.16;4999735;28;19918;-80
2022/05/18 09:19:43;;;;;;;;;;;;;;;26.49;13.19;100865.09;4989470;28;19918;-80
2022/05/18 09:22:35;;;;;;;;;;;;;;;26.55;13.40;100867.53;4971908;28;19938;-80
2022/05/18 09:25:47;;;;;;;;;;;;;;;26.35;13.64;100868.47;4953117;29;19954;-80
2022/05/18 09:28:53;;;;;;;;;;;;;;;26.55;13.47;100867.53;4893656;29;19919;-80
2022/05/18 09:31:50;;;;;;;;;;;;;;;26.71;13.01;100862.78;4877724;29;20005;-80
2022/05/18 09:34:25;;;;;;;;;;;;;;;26.59;13.21;100856.81;4877691;29;19920;-80
2022/05/18 09:40:23;;;;;;;;;;;;;;;26.73;13.37;100863.34;4878762;29;19970;-80
2022/05/18 09:43:10;;;;;;;;;;;;;;;26.67;13.39;100855.44;4831668;29;19920;-80
2022/05/18 09:46:13;;;;;;;;;;;;;;;26.57;13.45;100854.34;4875712;29;19924;-80
2022/05/18 09:48:48;;;;;;;;;;;;;;;26.36;13.64;100847.38;4820807;29;19925;-81
2022/05/18 09:51:30;;;;;;;;;;;;;;;;;;;;;
2022/05/18 09:54:23;;;;;;;;;;;;;;;26.58;13.54;100838.75;4792945;29;19967;-80
2022/05/18 09:57:39;;;;;;;;;;;;;;;;;;;;;
2022/05/18 10:00:16;;;;;;;;;;;;;;;26.31;13.76;100823.56;4837363;29;19996;-80
2022/05/18 10:14:51;;;;;;;;;;;;;;;26.36;14.26;100811.75;4874361;29;19936;-80
2022/05/18 10:17:42;;;;;;;;;;;;;;;26.37;14.20;100810.63;4871746;29;19920;-79
2022/05/18 10:20:31;;;;;;;;;;;;;;;26.65;14.07;100809.13;4903294;29;19930;-80
2022/05/18 10:23:19;;;;;;;;;;;;;;;26.83;13.85;100812.28;4898490;29;20434;-80
2022/05/18 10:26:14;;;;;;;;;;;;;;;26.75;13.93;100809.06;4931180;29;19955;-81
2022/05/18 10:28:48;;;;;;;;;;;;;;;26.67;13.90;100801.44;4901493;29;19923;-79
2022/05/18 10:31:25;;;;;;;;;;;;;;;26.82;14.03;100802.41;4912774;29;19919;-80
2022/05/18 10:34:17;;;;;;;;;;;;;;;26.84;13.92;100792.81;4927389;29;20046;-80
2022/05/18 10:40:15;;;;;;;;;;;;;;;26.52;14.22;100780.41;4913021;29;19925;-81
2022/05/18 10:43:15;;;;;;;;;;;;;;;26.62;14.20;100787.75;4836298;29;19921;-80
2022/05/18 10:53:02;;;;;;;;;;;;;;;;;;;;;
2022/05/18 10:55:52;;;;;;;;;;;;;;;26.69;13.99;100769.06;4893573;29;19967;-82
2022/05/18 11:02:08;;;;;;;;;;;;;;;26.68;14.10;100764.69;4932666;29;19920;-82
2022/05/18 11:07:34;;;;;;;;;;;;;;;26.58;13.82;100756.53;4928065;29;19947;-79
2022/05/18 11:10:14;;;;;;;;;;;;;;;26.76;13.85;100753.09;4920519;29;19923;-78
2022/05/18 11:12:50;;;;;;;;;;;;;;;26.59;14.11;100752.66;4927180;29;19919;-80
2022/05/18 11:15:16;;;;;;;;;;;;;;;26.63;14.11;100758.41;4913278;29;19954;-79
2022/05/18 11:17:44;;;;;;;;;;;;;;;26.56;14.12;100748.59;4927561;29;19938;-79
2022/05/18 11:20:29;;;;;;;;;;;;;;;26.68;13.88;100756.47;4964718;28;19992;-80
2022/05/18 11:26:24;;;;;;;;;;;;;;;26.83;13.76;100751.97;4848913;29;20463;-79
2022/05/18 11:32:31;;;;;;;;;;;;;;;;;;;;;
2022/05/18 11:41:44;;;;;;;;;;;;;;;26.69;13.81;100741.66;5048866;28;19931;-82
2022/05/18 11:50:59;;;;;;;;;;;;;;;26.67;13.80;100727.41;4984416;28;19961;-80
2022/05/18 12:00:13;;;;;;;;;;;;;;;;;;;;;
2022/05/18 12:03:20;;;;;;;;;;;;;;;26.81;13.72;100710.31;4898160;29;20009;-79
2022/05/18 12:06:06;;;;;;;;;;;;;;;26.75;13.66;100709.50;4944417;29;19919;-80
2022/05/18 12:08:53;;;;;;;;;;;;;;;26.69;13.71;100708.75;4850958;29;19973;-80
2022/05/18 12:11:47;;;;;;;;;;;;;;;;;;;;;
2022/05/18 12:14:47;;;;;;;;;;;;;;;;;;;;;
2022/05/18 12:17:33;;;;;;;;;;;;;;;26.70;13.58;100698.59;4846322;29;19933;-82
2022/05/18 12:19:58;;;;;;;;;;;;;;;26.66;13.70;100684.66;4843724;29;19994;-78
2022/05/18 12:25:43;;;;;;;;;;;;;;;26.71;13.82;100690.09;4856828;29;19985;-78
2022/05/18 12:28:33;;;;;;;;;;;;;;;26.79;13.63;100692.22;4877833;29;21113;-78
2022/05/18 12:31:00;;;;;;;;;;;;;;;26.75;13.85;100702.13;4884193;29;20010;-79
2022/05/18 12:33:55;;;;;;;;;;;;;;;26.74;13.90;100686.78;4899117;29;20052;-78
2022/05/18 12:36:46;;;;;;;;;;;;;;;26.67;14.01;100688.22;4898275;29;19931;-78
2022/05/18 12:39:24;;;;;;;;;;;;;;;26.71;13.69;100679.13;4892794;29;19920;-79
2022/05/18 12:42:30;;;;;;;;;;;;;;;;;;;;;
2022/05/18 12:48:12;;;;;;;;;;;;;;;26.78;13.61;100671.38;4936807;29;19970;-78
2022/05/18 12:51:05;;;;;;;;;;;;;;;26.68;13.67;100671.50;4944513;29;19922;-79
2022/05/18 12:53:43;;;;;;;;;;;;;;;26.64;13.88;100675.09;4944280;29;19919;-80
2022/05/18 12:56:31;;;;;;;;;;;;;;;26.64;13.88;100667.69;4946322;29;19926;-80
2022/05/18 12:59:00;;;;;;;;;;;;;;;26.60;13.91;100661.13;4907224;29;20042;-80
2022/05/18 13:01:28;;;;;;;;;;;;;;;26.58;13.84;100652.38;4917455;29;19965;-79
2022/05/18 13:03:57;;;;;;;;;;;;;;;26.59;13.97;100657.53;4956851;29;19984;-79
2022/05/18 13:06:41;;;;;;;;;;;;;;;26.59;13.90;100662.22;4943409;29;19918;-79
2022/05/18 13:09:38;;;;;;;;;;;;;;;26.57;13.80;100650.72;4958606;28;19918;-79
2022/05/18 13:12:22;;;;;;;;;;;;;;;26.55;13.77;100651.00;4954756;29;19973;-78
2022/05/18 13:15:03;;;;;;;;;;;;;;;26.53;13.79;100642.28;4957184;28;19918;-82
2022/05/18 13:17:47;;;;;;;;;;;;;;;26.50;13.78;100644.78;4943964;29;19985;-78
2022/05/18 13:23:27;;;;;;;;;;;;;;;26.43;13.93;100640.44;4961152;29;19989;-79
2022/05/18 13:25:59;;;;;;;;;;;;;;;26.47;13.71;100635.19;4991441;28;19922;-80
2022/05/18 13:28:25;;;;;;;;;;;;;;;26.49;13.58;100623.94;4999531;28;19953;-79
2022/05/18 13:30:54;;;;;;;;;;;;;;;26.46;13.74;100624.50;4999304;28;20001;-79
2022/05/18 13:33:20;;;;;;;;;;;;;;;26.44;13.65;100638.53;5000351;28;19918;-79
2022/05/18 13:35:57;;;;;;;;;;;;;;;26.42;13.37;100630.59;5023862;28;20009;-81
2022/05/18 13:41:20;;;;;;;;;;;;;;;26.40;13.36;100626.50;5036677;28;19951;-80
2022/05/18 13:43:48;;;;;;;;;;;;;;;26.40;13.23;100621.00;5060539;28;19917;-78
2022/05/18 13:46:24;;;;;;;;;;;;;;;26.38;13.25;100621.28;5060681;28;19987;-78
2022/05/18 13:49:04;;;;;;;;;;;;;;;26.37;13.18;100614.19;5060959;28;19960;-80
2022/05/18 13:51:41;;;;;;;;;;;;;;;26.40;13.05;100615.53;5043342;28;19917;-79
2022/05/18 13:54:12;;;;;;;;;;;;;;;26.38;13.22;100607.59;5043743;28;19917;-78
2022/05/18 13:56:46;;;;;;;;;;;;;;;26.35;13.24;100602.69;5060192;28;19924;-79
2022/05/18 14:02:45;;;;;;;;;;;;;;;26.33;13.32;100602.16;5018629;28;19968;-79
2022/05/18 14:05:13;;;;;;;;;;;;;;;26.30;13.13;100594.53;5056709;28;20014;-79
2022/05/18 14:07:41;;;;;;;;;;;;;;;26.33;13.12;100591.22;5060626;28;19917;-78
2022/05/18 14:10:35;;;;;;;;;;;;;;;26.32;13.11;100595.06;5061201;28;19916;-79
2022/05/18 14:19:00;;;;;;;;;;;;;;;26.27;13.13;100591.53;5017087;28;19917;-80
2022/05/18 14:21:31;;;;;;;;;;;;;;;26.20;12.95;100572.72;5061954;28;19980;-79
2022/05/18 14:24:11;;;;;;;;;;;;;;;26.17;12.92;100578.78;5044030;28;19979;-79
2022/05/18 14:26:55;;;;;;;;;;;;;;;26.13;13.15;100570.31;5025334;28;19917;-79
2022/05/18 14:29:44;;;;;;;;;;;;;;;26.10;12.98;100570.06;5023978;28;20023;-81
2022/05/18 14:32:38;;;;;;;;;;;;;;;26.07;12.88;100570.66;5040834;28;19931;-80
2022/05/18 14:35:40;;;;;;;;;;;;;;;26.02;13.04;100569.56;4999672;28;19932;-79
2022/05/18 14:38:07;;;;;;;;;;;;;;;25.97;12.87;100561.38;4960446;28;19922;-79
2022/05/18 14:40:39;;;;;;;;;;;;;;;25.97;13.10;100566.06;4945096;29;19922;-79
2022/05/18 14:43:05;;;;;;;;;;;;;;;25.93;13.07;100565.78;4957928;29;19925;-80
2022/05/18 14:45:41;;;;;;;;;;;;;;;25.92;13.26;100564.13;4960081;28;19957;-81
2022/05/18 14:48:15;;;;;;;;;;;;;;;25.88;12.88;100563.09;4960047;29;19925;-81
2022/05/18 14:50:43;;;;;;;;;;;;;;;25.85;13.20;100563.66;4960102;29;19942;-79